sensor_id;sensor_type;location;lat;lon;timestamp;P1;durP1;ratioP1;P2;durP2;ratioP2
73900;SDS011;62235;52.160;7.526;2023-04-15T00:01:07;7.55;;;3.95;;
73900;SDS011;62235;52.160;7.526;2023-04-15T00:03:32;7.40;;;4.10;;
73900;SDS011;62235;52.160;7.526;2023-04-15T00:05:58;6.15;;;3.90;;
73900;SDS011;62235;52.160;7.526;2023-04-15T00:08:23;6.28;;;3.63;;
73900;SDS011;62235;52.160;7.526;2023-04-15T00:10:49;8.02;;;3.40;;
73900;SDS011;62235;52.160;7.526;2023-04-15T00:13:14;7.25;;;3.78;;
73900;SDS011;62235;52.160;7.526;2023-04-15T00:15:40;8.30;;;4.10;;
73900;SDS011;62235;52.160;7.526;2023-04-15T00:18:06;6.70;;;3.42;;
73900;SDS011;62235;52.160;7.526;2023-04-15T00:20:32;10.00;;;4.10;;
73900;SDS011;62235;52.160;7.526;2023-04-15T00:22:58;9.60;;;4.50;;
73900;SDS011;62235;52.160;7.526;2023-04-15T00:25:24;7.28;;;4.13;;
73900;SDS011;62235;52.160;7.526;2023-04-15T00:27:50;8.30;;;4.20;;
73900;SDS011;62235;52.160;7.526;2023-04-15T00:30:15;5.47;;;3.58;;
73900;SDS011;62235;52.160;7.526;2023-04-15T00:32:41;8.73;;;3.90;;
73900;SDS011;62235;52.160;7.526;2023-04-15T00:35:06;6.75;;;4.32;;
73900;SDS011;62235;52.160;7.526;2023-04-15T00:37:32;7.43;;;4.60;;
73900;SDS011;62235;52.160;7.526;2023-04-15T00:39:59;9.18;;;4.30;;
73900;SDS011;62235;52.160;7.526;2023-04-15T00:42:24;9.27;;;3.88;;
73900;SDS011;62235;52.160;7.526;2023-04-15T00:44:50;10.15;;;4.13;;
73900;SDS011;62235;52.160;7.526;2023-04-15T00:47:16;11.63;;;4.25;;
73900;SDS011;62235;52.160;7.526;2023-04-15T00:49:41;8.80;;;3.80;;
73900;SDS011;62235;52.160;7.526;2023-04-15T00:52:06;7.37;;;3.77;;
73900;SDS011;62235;52.160;7.526;2023-04-15T00:54:33;5.63;;;3.50;;
73900;SDS011;62235;52.160;7.526;2023-04-15T00:56:58;5.72;;;3.42;;
73900;SDS011;62235;52.160;7.526;2023-04-15T00:59:24;6.40;;;3.67;;
73900;SDS011;62235;52.160;7.526;2023-04-15T01:01:50;8.07;;;4.05;;
73900;SDS011;62235;52.160;7.526;2023-04-15T01:04:16;5.97;;;3.50;;
73900;SDS011;62235;52.160;7.526;2023-04-15T01:06:41;7.95;;;4.20;;
73900;SDS011;62235;52.160;7.526;2023-04-15T01:09:07;6.67;;;3.50;;
73900;SDS011;62235;52.160;7.526;2023-04-15T01:11:32;6.03;;;3.70;;
73900;SDS011;62235;52.160;7.526;2023-04-15T01:13:58;8.18;;;3.85;;
73900;SDS011;62235;52.160;7.526;2023-04-15T01:16:24;7.60;;;4.10;;
73900;SDS011;62235;52.160;7.526;2023-04-15T01:18:50;5.35;;;3.42;;
73900;SDS011;62235;52.160;7.526;2023-04-15T01:21:16;7.45;;;3.90;;
73900;SDS011;62235;52.160;7.526;2023-04-15T01:23:42;6.53;;;3.60;;
73900;SDS011;62235;52.160;7.526;2023-04-15T01:26:08;9.57;;;3.95;;
73900;SDS011;62235;52.160;7.526;2023-04-15T01:28:34;8.25;;;3.75;;
73900;SDS011;62235;52.160;7.526;2023-04-15T01:31:10;6.40;;;3.63;;
73900;SDS011;62235;52.160;7.526;2023-04-15T01:33:37;7.78;;;3.00;;
73900;SDS011;62235;52.160;7.526;2023-04-15T01:36:07;7.18;;;4.03;;
73900;SDS011;62235;52.160;7.526;2023-04-15T01:38:34;6.32;;;3.67;;
73900;SDS011;62235;52.160;7.526;2023-04-15T01:41:00;6.22;;;3.85;;
73900;SDS011;62235;52.160;7.526;2023-04-15T01:43:25;8.00;;;4.03;;
73900;SDS011;62235;52.160;7.526;2023-04-15T01:45:50;5.63;;;3.72;;
73900;SDS011;62235;52.160;7.526;2023-04-15T01:48:16;5.72;;;3.42;;
73900;SDS011;62235;52.160;7.526;2023-04-15T01:50:42;7.43;;;4.13;;
73900;SDS011;62235;52.160;7.526;2023-04-15T01:53:07;5.72;;;3.38;;
73900;SDS011;62235;52.160;7.526;2023-04-15T01:55:32;6.87;;;4.07;;
73900;SDS011;62235;52.160;7.526;2023-04-15T01:57:58;7.90;;;4.28;;
73900;SDS011;62235;52.160;7.526;2023-04-15T02:00:23;5.70;;;3.60;;
73900;SDS011;62235;52.160;7.526;2023-04-15T02:02:49;7.10;;;3.97;;
73900;SDS011;62235;52.160;7.526;2023-04-15T02:05:14;8.40;;;4.10;;
73900;SDS011;62235;52.160;7.526;2023-04-15T02:07:41;8.20;;;3.67;;
73900;SDS011;62235;52.160;7.526;2023-04-15T02:10:07;7.30;;;3.85;;
73900;SDS011;62235;52.160;7.526;2023-04-15T02:12:33;6.43;;;4.00;;
73900;SDS011;62235;52.160;7.526;2023-04-15T02:14:58;6.57;;;3.83;;
73900;SDS011;62235;52.160;7.526;2023-04-15T02:17:24;8.53;;;3.80;;
73900;SDS011;62235;52.160;7.526;2023-04-15T02:19:49;8.87;;;4.43;;
73900;SDS011;62235;52.160;7.526;2023-04-15T02:22:14;7.93;;;4.23;;
73900;SDS011;62235;52.160;7.526;2023-04-15T02:24:42;7.72;;;4.32;;
73900;SDS011;62235;52.160;7.526;2023-04-15T02:27:08;6.35;;;3.80;;
73900;SDS011;62235;52.160;7.526;2023-04-15T02:29:33;7.03;;;3.85;;
73900;SDS011;62235;52.160;7.526;2023-04-15T02:31:58;7.23;;;4.23;;
73900;SDS011;62235;52.160;7.526;2023-04-15T02:34:24;9.65;;;4.30;;
73900;SDS011;62235;52.160;7.526;2023-04-15T02:36:51;6.75;;;3.85;;
73900;SDS011;62235;52.160;7.526;2023-04-15T02:39:19;7.57;;;3.90;;
73900;SDS011;62235;52.160;7.526;2023-04-15T02:41:45;7.40;;;4.32;;
73900;SDS011;62235;52.160;7.526;2023-04-15T02:44:15;6.93;;;4.22;;
73900;SDS011;62235;52.160;7.526;2023-04-15T02:46:42;8.20;;;4.07;;
73900;SDS011;62235;52.160;7.526;2023-04-15T02:49:08;10.77;;;4.50;;
73900;SDS011;62235;52.160;7.526;2023-04-15T02:51:33;7.13;;;3.93;;
73900;SDS011;62235;52.160;7.526;2023-04-15T02:53:58;6.17;;;3.90;;
73900;SDS011;62235;52.160;7.526;2023-04-15T02:56:24;7.47;;;4.17;;
73900;SDS011;62235;52.160;7.526;2023-04-15T02:58:49;8.07;;;4.25;;
73900;SDS011;62235;52.160;7.526;2023-04-15T03:01:15;7.03;;;4.28;;
73900;SDS011;62235;52.160;7.526;2023-04-15T03:03:40;8.40;;;4.30;;
73900;SDS011;62235;52.160;7.526;2023-04-15T03:06:06;6.93;;;4.28;;
73900;SDS011;62235;52.160;7.526;2023-04-15T03:08:32;8.13;;;4.53;;
73900;SDS011;62235;52.160;7.526;2023-04-15T03:10:58;9.80;;;4.57;;
73900;SDS011;62235;52.160;7.526;2023-04-15T03:13:24;7.65;;;4.22;;
73900;SDS011;62235;52.160;7.526;2023-04-15T03:15:50;8.10;;;4.65;;
73900;SDS011;62235;52.160;7.526;2023-04-15T03:18:16;13.38;;;6.20;;
73900;SDS011;62235;52.160;7.526;2023-04-15T03:20:41;15.47;;;5.37;;
73900;SDS011;62235;52.160;7.526;2023-04-15T03:23:06;8.80;;;4.70;;
73900;SDS011;62235;52.160;7.526;2023-04-15T03:25:31;8.95;;;5.18;;
73900;SDS011;62235;52.160;7.526;2023-04-15T03:27:57;8.83;;;5.17;;
73900;SDS011;62235;52.160;7.526;2023-04-15T03:30:23;6.43;;;4.05;;
73900;SDS011;62235;52.160;7.526;2023-04-15T03:32:49;7.53;;;4.70;;
73900;SDS011;62235;52.160;7.526;2023-04-15T03:35:14;7.55;;;4.45;;
73900;SDS011;62235;52.160;7.526;2023-04-15T03:37:40;7.93;;;4.30;;
73900;SDS011;62235;52.160;7.526;2023-04-15T03:40:06;7.97;;;4.07;;
73900;SDS011;62235;52.160;7.526;2023-04-15T03:42:32;8.70;;;4.40;;
73900;SDS011;62235;52.160;7.526;2023-04-15T03:44:57;10.93;;;5.00;;
73900;SDS011;62235;52.160;7.526;2023-04-15T03:47:23;10.55;;;5.07;;
73900;SDS011;62235;52.160;7.526;2023-04-15T03:49:48;11.48;;;5.50;;
73900;SDS011;62235;52.160;7.526;2023-04-15T03:52:13;8.93;;;4.40;;
73900;SDS011;62235;52.160;7.526;2023-04-15T03:54:39;7.30;;;4.30;;
73900;SDS011;62235;52.160;7.526;2023-04-15T03:57:04;7.75;;;4.53;;
73900;SDS011;62235;52.160;7.526;2023-04-15T03:59:30;8.80;;;4.82;;
73900;SDS011;62235;52.160;7.526;2023-04-15T04:01:55;9.47;;;4.93;;
73900;SDS011;62235;52.160;7.526;2023-04-15T04:04:21;10.45;;;5.18;;
73900;SDS011;62235;52.160;7.526;2023-04-15T04:06:46;8.97;;;5.00;;
73900;SDS011;62235;52.160;7.526;2023-04-15T04:09:11;11.73;;;5.63;;
73900;SDS011;62235;52.160;7.526;2023-04-15T04:11:37;10.60;;;5.30;;
73900;SDS011;62235;52.160;7.526;2023-04-15T04:14:02;8.90;;;4.75;;
73900;SDS011;62235;52.160;7.526;2023-04-15T04:16:27;8.13;;;3.90;;
73900;SDS011;62235;52.160;7.526;2023-04-15T04:18:53;12.03;;;4.43;;
73900;SDS011;62235;52.160;7.526;2023-04-15T04:21:18;10.07;;;4.83;;
73900;SDS011;62235;52.160;7.526;2023-04-15T04:23:44;11.23;;;5.50;;
73900;SDS011;62235;52.160;7.526;2023-04-15T04:26:10;9.70;;;5.20;;
73900;SDS011;62235;52.160;7.526;2023-04-15T04:28:35;7.23;;;4.57;;
73900;SDS011;62235;52.160;7.526;2023-04-15T04:31:00;10.27;;;5.40;;
73900;SDS011;62235;52.160;7.526;2023-04-15T04:33:26;12.27;;;5.50;;
73900;SDS011;62235;52.160;7.526;2023-04-15T04:35:51;15.52;;;5.72;;
73900;SDS011;62235;52.160;7.526;2023-04-15T04:38:16;9.47;;;5.23;;
73900;SDS011;62235;52.160;7.526;2023-04-15T04:40:42;9.05;;;4.85;;
73900;SDS011;62235;52.160;7.526;2023-04-15T04:43:07;11.32;;;6.15;;
73900;SDS011;62235;52.160;7.526;2023-04-15T04:45:33;11.68;;;5.88;;
73900;SDS011;62235;52.160;7.526;2023-04-15T04:47:58;10.37;;;5.37;;
73900;SDS011;62235;52.160;7.526;2023-04-15T04:50:24;11.10;;;6.10;;
73900;SDS011;62235;52.160;7.526;2023-04-15T04:52:50;9.10;;;4.75;;
73900;SDS011;62235;52.160;7.526;2023-04-15T04:55:15;10.90;;;6.13;;
73900;SDS011;62235;52.160;7.526;2023-04-15T04:57:41;12.65;;;5.85;;
73900;SDS011;62235;52.160;7.526;2023-04-15T05:00:06;10.77;;;5.97;;
73900;SDS011;62235;52.160;7.526;2023-04-15T05:02:33;10.07;;;5.00;;
73900;SDS011;62235;52.160;7.526;2023-04-15T05:04:58;11.75;;;5.88;;
73900;SDS011;62235;52.160;7.526;2023-04-15T05:07:23;11.40;;;5.27;;
73900;SDS011;62235;52.160;7.526;2023-04-15T05:09:49;12.32;;;6.63;;
73900;SDS011;62235;52.160;7.526;2023-04-15T05:12:14;10.27;;;5.68;;
73900;SDS011;62235;52.160;7.526;2023-04-15T05:14:40;7.72;;;3.78;;
73900;SDS011;62235;52.160;7.526;2023-04-15T05:17:06;10.27;;;5.40;;
73900;SDS011;62235;52.160;7.526;2023-04-15T05:19:32;9.63;;;5.13;;
73900;SDS011;62235;52.160;7.526;2023-04-15T05:21:57;10.30;;;5.78;;
73900;SDS011;62235;52.160;7.526;2023-04-15T05:24:23;8.80;;;4.37;;
73900;SDS011;62235;52.160;7.526;2023-04-15T05:26:48;11.32;;;6.25;;
73900;SDS011;62235;52.160;7.526;2023-04-15T05:29:13;6.50;;;2.80;;
73900;SDS011;62235;52.160;7.526;2023-04-15T05:31:39;13.18;;;5.65;;
73900;SDS011;62235;52.160;7.526;2023-04-15T05:34:04;15.88;;;7.03;;
73900;SDS011;62235;52.160;7.526;2023-04-15T05:36:32;10.25;;;5.15;;
73900;SDS011;62235;52.160;7.526;2023-04-15T05:38:57;12.30;;;6.35;;
73900;SDS011;62235;52.160;7.526;2023-04-15T05:41:22;12.27;;;5.90;;
73900;SDS011;62235;52.160;7.526;2023-04-15T05:43:48;13.50;;;5.88;;
73900;SDS011;62235;52.160;7.526;2023-04-15T05:46:13;13.00;;;6.57;;
73900;SDS011;62235;52.160;7.526;2023-04-15T05:48:38;2.93;;;1.60;;
73900;SDS011;62235;52.160;7.526;2023-04-15T05:51:04;3.60;;;2.85;;
73900;SDS011;62235;52.160;7.526;2023-04-15T05:53:29;12.88;;;5.95;;
73900;SDS011;62235;52.160;7.526;2023-04-15T05:55:55;9.27;;;4.35;;
73900;SDS011;62235;52.160;7.526;2023-04-15T05:58:21;8.33;;;3.90;;
73900;SDS011;62235;52.160;7.526;2023-04-15T06:00:46;4.78;;;2.88;;
73900;SDS011;62235;52.160;7.526;2023-04-15T06:03:11;11.15;;;6.15;;
73900;SDS011;62235;52.160;7.526;2023-04-15T06:05:37;11.93;;;6.85;;
73900;SDS011;62235;52.160;7.526;2023-04-15T06:08:02;4.35;;;3.15;;
73900;SDS011;62235;52.160;7.526;2023-04-15T06:10:28;9.45;;;4.35;;
73900;SDS011;62235;52.160;7.526;2023-04-15T06:12:53;10.70;;;5.13;;
73900;SDS011;62235;52.160;7.526;2023-04-15T06:15:19;8.73;;;3.83;;
73900;SDS011;62235;52.160;7.526;2023-04-15T06:17:44;12.25;;;6.35;;
73900;SDS011;62235;52.160;7.526;2023-04-15T06:20:10;10.00;;;3.95;;
73900;SDS011;62235;52.160;7.526;2023-04-15T06:22:36;10.98;;;4.80;;
73900;SDS011;62235;52.160;7.526;2023-04-15T06:25:03;9.90;;;4.45;;
73900;SDS011;62235;52.160;7.526;2023-04-15T06:27:29;3.92;;;1.92;;
73900;SDS011;62235;52.160;7.526;2023-04-15T06:29:54;7.43;;;3.97;;
73900;SDS011;62235;52.160;7.526;2023-04-15T06:32:20;5.80;;;2.55;;
73900;SDS011;62235;52.160;7.526;2023-04-15T06:34:45;17.38;;;5.63;;
73900;SDS011;62235;52.160;7.526;2023-04-15T06:37:10;12.15;;;5.85;;
73900;SDS011;62235;52.160;7.526;2023-04-15T06:39:40;11.27;;;5.25;;
73900;SDS011;62235;52.160;7.526;2023-04-15T06:42:05;11.45;;;5.85;;
73900;SDS011;62235;52.160;7.526;2023-04-15T06:44:30;13.82;;;5.95;;
73900;SDS011;62235;52.160;7.526;2023-04-15T06:46:56;3.17;;;1.95;;
73900;SDS011;62235;52.160;7.526;2023-04-15T06:49:21;7.67;;;3.73;;
73900;SDS011;62235;52.160;7.526;2023-04-15T06:51:46;14.90;;;6.75;;
73900;SDS011;62235;52.160;7.526;2023-04-15T06:54:12;12.43;;;6.10;;
73900;SDS011;62235;52.160;7.526;2023-04-15T06:56:37;9.30;;;4.27;;
73900;SDS011;62235;52.160;7.526;2023-04-15T06:59:02;14.57;;;5.57;;
73900;SDS011;62235;52.160;7.526;2023-04-15T07:01:28;5.90;;;3.00;;
73900;SDS011;62235;52.160;7.526;2023-04-15T07:03:53;5.53;;;2.83;;
73900;SDS011;62235;52.160;7.526;2023-04-15T07:06:18;5.72;;;2.92;;
73900;SDS011;62235;52.160;7.526;2023-04-15T07:08:47;6.47;;;3.22;;
73900;SDS011;62235;52.160;7.526;2023-04-15T07:11:13;11.57;;;5.97;;
73900;SDS011;62235;52.160;7.526;2023-04-15T07:13:39;14.95;;;7.40;;
73900;SDS011;62235;52.160;7.526;2023-04-15T07:16:04;6.60;;;3.83;;
73900;SDS011;62235;52.160;7.526;2023-04-15T07:18:29;13.00;;;4.55;;
73900;SDS011;62235;52.160;7.526;2023-04-15T07:20:55;7.67;;;3.30;;
73900;SDS011;62235;52.160;7.526;2023-04-15T07:23:20;6.13;;;3.03;;
73900;SDS011;62235;52.160;7.526;2023-04-15T07:25:46;13.23;;;6.75;;
73900;SDS011;62235;52.160;7.526;2023-04-15T07:28:12;10.93;;;5.35;;
73900;SDS011;62235;52.160;7.526;2023-04-15T07:30:37;12.27;;;5.78;;
73900;SDS011;62235;52.160;7.526;2023-04-15T07:33:03;5.88;;;3.55;;
73900;SDS011;62235;52.160;7.526;2023-04-15T07:35:28;2.30;;;1.73;;
73900;SDS011;62235;52.160;7.526;2023-04-15T07:37:53;10.00;;;4.73;;
73900;SDS011;62235;52.160;7.526;2023-04-15T07:40:19;12.00;;;4.95;;
73900;SDS011;62235;52.160;7.526;2023-04-15T07:42:46;4.32;;;2.22;;
73900;SDS011;62235;52.160;7.526;2023-04-15T07:45:13;8.57;;;3.88;;
73900;SDS011;62235;52.160;7.526;2023-04-15T07:47:39;7.85;;;4.00;;
73900;SDS011;62235;52.160;7.526;2023-04-15T07:50:05;6.45;;;3.40;;
73900;SDS011;62235;52.160;7.526;2023-04-15T07:52:31;11.18;;;5.65;;
73900;SDS011;62235;52.160;7.526;2023-04-15T07:55:03;11.65;;;6.07;;
73900;SDS011;62235;52.160;7.526;2023-04-15T07:57:29;12.90;;;5.45;;
73900;SDS011;62235;52.160;7.526;2023-04-15T07:59:54;6.03;;;2.95;;
73900;SDS011;62235;52.160;7.526;2023-04-15T08:02:20;7.60;;;3.58;;
73900;SDS011;62235;52.160;7.526;2023-04-15T08:04:46;8.45;;;4.38;;
73900;SDS011;62235;52.160;7.526;2023-04-15T08:07:11;15.80;;;7.05;;
73900;SDS011;62235;52.160;7.526;2023-04-15T08:09:37;8.75;;;4.32;;
73900;SDS011;62235;52.160;7.526;2023-04-15T08:12:02;14.40;;;4.97;;
73900;SDS011;62235;52.160;7.526;2023-04-15T08:14:28;9.95;;;4.68;;
73900;SDS011;62235;52.160;7.526;2023-04-15T08:16:53;12.88;;;6.85;;
73900;SDS011;62235;52.160;7.526;2023-04-15T08:19:18;9.13;;;4.87;;
73900;SDS011;62235;52.160;7.526;2023-04-15T08:21:44;6.85;;;3.47;;
73900;SDS011;62235;52.160;7.526;2023-04-15T08:24:10;10.60;;;5.57;;
73900;SDS011;62235;52.160;7.526;2023-04-15T08:26:35;7.28;;;3.63;;
73900;SDS011;62235;52.160;7.526;2023-04-15T08:29:00;10.15;;;4.20;;
73900;SDS011;62235;52.160;7.526;2023-04-15T08:31:27;8.57;;;3.80;;
73900;SDS011;62235;52.160;7.526;2023-04-15T08:33:53;4.53;;;2.35;;
73900;SDS011;62235;52.160;7.526;2023-04-15T08:36:21;8.27;;;4.50;;
73900;SDS011;62235;52.160;7.526;2023-04-15T08:38:46;7.93;;;3.47;;
73900;SDS011;62235;52.160;7.526;2023-04-15T08:41:17;8.37;;;3.50;;
73900;SDS011;62235;52.160;7.526;2023-04-15T08:43:48;8.45;;;3.13;;
73900;SDS011;62235;52.160;7.526;2023-04-15T08:46:17;6.75;;;3.60;;
73900;SDS011;62235;52.160;7.526;2023-04-15T08:48:43;6.45;;;2.83;;
73900;SDS011;62235;52.160;7.526;2023-04-15T08:51:10;11.90;;;4.93;;
73900;SDS011;62235;52.160;7.526;2023-04-15T08:53:39;7.03;;;4.13;;
73900;SDS011;62235;52.160;7.526;2023-04-15T08:56:06;5.55;;;3.05;;
73900;SDS011;62235;52.160;7.526;2023-04-15T08:58:34;11.00;;;5.57;;
73900;SDS011;62235;52.160;7.526;2023-04-15T09:01:00;3.80;;;1.33;;
73900;SDS011;62235;52.160;7.526;2023-04-15T09:03:26;9.10;;;3.55;;
73900;SDS011;62235;52.160;7.526;2023-04-15T09:05:56;10.88;;;4.97;;
73900;SDS011;62235;52.160;7.526;2023-04-15T09:08:22;7.10;;;3.13;;
73900;SDS011;62235;52.160;7.526;2023-04-15T09:10:47;8.98;;;4.53;;
73900;SDS011;62235;52.160;7.526;2023-04-15T09:13:12;7.90;;;3.05;;
73900;SDS011;62235;52.160;7.526;2023-04-15T09:15:38;8.80;;;4.35;;
73900;SDS011;62235;52.160;7.526;2023-04-15T09:18:03;6.80;;;3.83;;
73900;SDS011;62235;52.160;7.526;2023-04-15T09:20:29;6.93;;;3.88;;
73900;SDS011;62235;52.160;7.526;2023-04-15T09:22:55;5.13;;;3.35;;
73900;SDS011;62235;52.160;7.526;2023-04-15T09:27:56;7.03;;;3.03;;
73900;SDS011;62235;52.160;7.526;2023-04-15T09:30:23;7.32;;;3.40;;
73900;SDS011;62235;52.160;7.526;2023-04-15T09:32:50;8.18;;;4.07;;
73900;SDS011;62235;52.160;7.526;2023-04-15T09:35:20;5.82;;;2.83;;
73900;SDS011;62235;52.160;7.526;2023-04-15T09:37:47;8.02;;;3.63;;
73900;SDS011;62235;52.160;7.526;2023-04-15T09:40:13;9.10;;;4.88;;
73900;SDS011;62235;52.160;7.526;2023-04-15T09:42:54;7.55;;;3.25;;
73900;SDS011;62235;52.160;7.526;2023-04-15T09:45:20;10.13;;;5.10;;
73900;SDS011;62235;52.160;7.526;2023-04-15T09:47:46;6.53;;;3.40;;
73900;SDS011;62235;52.160;7.526;2023-04-15T09:50:11;6.80;;;3.03;;
73900;SDS011;62235;52.160;7.526;2023-04-15T09:52:40;7.30;;;3.37;;
73900;SDS011;62235;52.160;7.526;2023-04-15T09:55:07;7.85;;;3.63;;
73900;SDS011;62235;52.160;7.526;2023-04-15T09:57:33;1.92;;;1.38;;
73900;SDS011;62235;52.160;7.526;2023-04-15T10:00:00;7.75;;;3.72;;
73900;SDS011;62235;52.160;7.526;2023-04-15T10:02:25;7.63;;;3.90;;
73900;SDS011;62235;52.160;7.526;2023-04-15T10:04:51;8.15;;;3.78;;
73900;SDS011;62235;52.160;7.526;2023-04-15T10:07:16;11.73;;;3.38;;
73900;SDS011;62235;52.160;7.526;2023-04-15T10:09:44;8.98;;;3.47;;
73900;SDS011;62235;52.160;7.526;2023-04-15T10:12:11;3.88;;;2.15;;
73900;SDS011;62235;52.160;7.526;2023-04-15T10:14:36;7.72;;;3.88;;
73900;SDS011;62235;52.160;7.526;2023-04-15T10:17:03;5.30;;;3.35;;
73900;SDS011;62235;52.160;7.526;2023-04-15T10:19:32;7.15;;;2.80;;
73900;SDS011;62235;52.160;7.526;2023-04-15T10:24:23;5.88;;;2.85;;
73900;SDS011;62235;52.160;7.526;2023-04-15T10:26:50;7.15;;;3.50;;
73900;SDS011;62235;52.160;7.526;2023-04-15T10:29:15;6.15;;;3.30;;
73900;SDS011;62235;52.160;7.526;2023-04-15T10:31:41;5.25;;;2.75;;
73900;SDS011;62235;52.160;7.526;2023-04-15T10:34:07;5.43;;;1.98;;
73900;SDS011;62235;52.160;7.526;2023-04-15T10:36:32;4.43;;;2.50;;
73900;SDS011;62235;52.160;7.526;2023-04-15T10:38:58;4.95;;;2.55;;
73900;SDS011;62235;52.160;7.526;2023-04-15T10:41:24;5.73;;;2.43;;
73900;SDS011;62235;52.160;7.526;2023-04-15T10:43:56;5.45;;;4.05;;
73900;SDS011;62235;52.160;7.526;2023-04-15T10:46:44;5.20;;;2.85;;
73900;SDS011;62235;52.160;7.526;2023-04-15T10:49:14;6.60;;;3.38;;
73900;SDS011;62235;52.160;7.526;2023-04-15T10:51:41;4.15;;;1.60;;
73900;SDS011;62235;52.160;7.526;2023-04-15T10:54:15;4.22;;;2.53;;
73900;SDS011;62235;52.160;7.526;2023-04-15T10:56:50;6.20;;;3.42;;
73900;SDS011;62235;52.160;7.526;2023-04-15T10:59:17;5.10;;;2.90;;
73900;SDS011;62235;52.160;7.526;2023-04-15T11:01:53;5.10;;;3.50;;
73900;SDS011;62235;52.160;7.526;2023-04-15T11:07:33;4.57;;;2.75;;
73900;SDS011;62235;52.160;7.526;2023-04-15T11:09:58;4.28;;;2.40;;
73900;SDS011;62235;52.160;7.526;2023-04-15T11:12:32;2.83;;;1.87;;
73900;SDS011;62235;52.160;7.526;2023-04-15T11:14:59;3.13;;;2.03;;
73900;SDS011;62235;52.160;7.526;2023-04-15T11:17:46;3.50;;;2.00;;
73900;SDS011;62235;52.160;7.526;2023-04-15T11:20:13;4.18;;;1.77;;
73900;SDS011;62235;52.160;7.526;2023-04-15T11:22:45;3.10;;;1.73;;
73900;SDS011;62235;52.160;7.526;2023-04-15T11:25:21;2.85;;;1.42;;
73900;SDS011;62235;52.160;7.526;2023-04-15T11:30:17;4.90;;;2.30;;
73900;SDS011;62235;52.160;7.526;2023-04-15T11:32:50;3.55;;;1.60;;
73900;SDS011;62235;52.160;7.526;2023-04-15T11:35:22;2.97;;;1.70;;
73900;SDS011;62235;52.160;7.526;2023-04-15T11:37:48;2.38;;;1.60;;
73900;SDS011;62235;52.160;7.526;2023-04-15T11:40:14;4.75;;;2.67;;
73900;SDS011;62235;52.160;7.526;2023-04-15T11:42:41;4.05;;;2.15;;
73900;SDS011;62235;52.160;7.526;2023-04-15T11:47:36;3.45;;;1.90;;
73900;SDS011;62235;52.160;7.526;2023-04-15T11:50:15;2.40;;;1.25;;
73900;SDS011;62235;52.160;7.526;2023-04-15T11:55:19;3.97;;;1.88;;
73900;SDS011;62235;52.160;7.526;2023-04-15T11:57:44;3.70;;;2.17;;
73900;SDS011;62235;52.160;7.526;2023-04-15T12:00:10;5.20;;;1.92;;
73900;SDS011;62235;52.160;7.526;2023-04-15T12:02:36;5.95;;;2.33;;
73900;SDS011;62235;52.160;7.526;2023-04-15T12:05:02;2.60;;;1.60;;
73900;SDS011;62235;52.160;7.526;2023-04-15T12:07:29;2.80;;;1.38;;
73900;SDS011;62235;52.160;7.526;2023-04-15T12:09:54;2.05;;;1.25;;
73900;SDS011;62235;52.160;7.526;2023-04-15T12:12:20;6.03;;;3.58;;
73900;SDS011;62235;52.160;7.526;2023-04-15T12:14:46;4.13;;;2.55;;
73900;SDS011;62235;52.160;7.526;2023-04-15T12:17:11;3.80;;;2.10;;
73900;SDS011;62235;52.160;7.526;2023-04-15T12:19:40;4.37;;;1.83;;
73900;SDS011;62235;52.160;7.526;2023-04-15T12:22:10;4.07;;;2.33;;
73900;SDS011;62235;52.160;7.526;2023-04-15T12:24:37;4.97;;;2.50;;
73900;SDS011;62235;52.160;7.526;2023-04-15T12:27:13;8.93;;;4.05;;
73900;SDS011;62235;52.160;7.526;2023-04-15T12:29:40;4.10;;;2.45;;
73900;SDS011;62235;52.160;7.526;2023-04-15T12:32:16;2.72;;;1.83;;
73900;SDS011;62235;52.160;7.526;2023-04-15T12:37:14;4.90;;;2.17;;
73900;SDS011;62235;52.160;7.526;2023-04-15T12:39:40;4.65;;;1.50;;
73900;SDS011;62235;52.160;7.526;2023-04-15T12:42:07;4.20;;;2.70;;
73900;SDS011;62235;52.160;7.526;2023-04-15T12:44:33;2.45;;;1.25;;
73900;SDS011;62235;52.160;7.526;2023-04-15T12:46:59;9.27;;;2.67;;
73900;SDS011;62235;52.160;7.526;2023-04-15T12:49:25;6.25;;;3.70;;
73900;SDS011;62235;52.160;7.526;2023-04-15T12:51:51;4.15;;;2.08;;
73900;SDS011;62235;52.160;7.526;2023-04-15T12:54:18;5.93;;;2.55;;
73900;SDS011;62235;52.160;7.526;2023-04-15T12:56:44;4.63;;;2.28;;
73900;SDS011;62235;52.160;7.526;2023-04-15T12:59:10;6.18;;;2.22;;
73900;SDS011;62235;52.160;7.526;2023-04-15T13:01:36;4.40;;;1.90;;
73900;SDS011;62235;52.160;7.526;2023-04-15T13:04:02;1.90;;;1.05;;
73900;SDS011;62235;52.160;7.526;2023-04-15T13:06:27;3.40;;;2.10;;
73900;SDS011;62235;52.160;7.526;2023-04-15T13:08:53;3.30;;;1.90;;
73900;SDS011;62235;52.160;7.526;2023-04-15T13:11:19;4.88;;;2.40;;
73900;SDS011;62235;52.160;7.526;2023-04-15T13:13:47;2.15;;;1.45;;
73900;SDS011;62235;52.160;7.526;2023-04-15T13:16:13;2.75;;;1.70;;
73900;SDS011;62235;52.160;7.526;2023-04-15T13:18:38;5.07;;;2.20;;
73900;SDS011;62235;52.160;7.526;2023-04-15T13:21:04;2.42;;;1.73;;
73900;SDS011;62235;52.160;7.526;2023-04-15T13:23:31;4.18;;;1.88;;
73900;SDS011;62235;52.160;7.526;2023-04-15T13:25:57;2.35;;;1.27;;
73900;SDS011;62235;52.160;7.526;2023-04-15T13:28:22;1.70;;;1.13;;
73900;SDS011;62235;52.160;7.526;2023-04-15T13:30:47;3.57;;;1.83;;
73900;SDS011;62235;52.160;7.526;2023-04-15T13:33:13;2.33;;;1.30;;
73900;SDS011;62235;52.160;7.526;2023-04-15T13:35:38;10.53;;;4.37;;
73900;SDS011;62235;52.160;7.526;2023-04-15T13:38:04;3.63;;;1.83;;
73900;SDS011;62235;52.160;7.526;2023-04-15T13:40:30;3.40;;;2.00;;
73900;SDS011;62235;52.160;7.526;2023-04-15T13:42:55;3.77;;;2.10;;
73900;SDS011;62235;52.160;7.526;2023-04-15T13:45:22;4.15;;;2.40;;
73900;SDS011;62235;52.160;7.526;2023-04-15T13:47:47;2.97;;;1.75;;
73900;SDS011;62235;52.160;7.526;2023-04-15T13:50:13;3.47;;;1.37;;
73900;SDS011;62235;52.160;7.526;2023-04-15T13:52:38;4.55;;;1.48;;
73900;SDS011;62235;52.160;7.526;2023-04-15T13:55:04;1.58;;;1.25;;
73900;SDS011;62235;52.160;7.526;2023-04-15T13:57:30;1.63;;;1.10;;
73900;SDS011;62235;52.160;7.526;2023-04-15T13:59:55;2.05;;;1.42;;
73900;SDS011;62235;52.160;7.526;2023-04-15T14:02:23;2.25;;;1.67;;
73900;SDS011;62235;52.160;7.526;2023-04-15T14:04:48;2.08;;;1.25;;
73900;SDS011;62235;52.160;7.526;2023-04-15T14:07:13;4.13;;;2.00;;
73900;SDS011;62235;52.160;7.526;2023-04-15T14:09:39;3.15;;;1.23;;
73900;SDS011;62235;52.160;7.526;2023-04-15T14:12:04;9.45;;;1.92;;
73900;SDS011;62235;52.160;7.526;2023-04-15T14:14:30;3.28;;;1.60;;
73900;SDS011;62235;52.160;7.526;2023-04-15T14:16:55;4.38;;;2.95;;
73900;SDS011;62235;52.160;7.526;2023-04-15T14:19:21;4.43;;;2.55;;
73900;SDS011;62235;52.160;7.526;2023-04-15T14:21:47;7.05;;;3.13;;
73900;SDS011;62235;52.160;7.526;2023-04-15T14:24:12;2.97;;;1.87;;
73900;SDS011;62235;52.160;7.526;2023-04-15T14:26:37;1.97;;;1.57;;
73900;SDS011;62235;52.160;7.526;2023-04-15T14:29:03;2.47;;;1.30;;
73900;SDS011;62235;52.160;7.526;2023-04-15T14:31:28;1.70;;;1.30;;
73900;SDS011;62235;52.160;7.526;2023-04-15T14:33:53;2.63;;;1.83;;
73900;SDS011;62235;52.160;7.526;2023-04-15T14:36:19;3.23;;;1.37;;
73900;SDS011;62235;52.160;7.526;2023-04-15T14:38:44;3.78;;;2.33;;
73900;SDS011;62235;52.160;7.526;2023-04-15T14:41:09;3.50;;;2.23;;
73900;SDS011;62235;52.160;7.526;2023-04-15T14:43:36;3.42;;;1.80;;
73900;SDS011;62235;52.160;7.526;2023-04-15T14:46:01;3.20;;;2.20;;
73900;SDS011;62235;52.160;7.526;2023-04-15T14:48:27;2.55;;;1.65;;
73900;SDS011;62235;52.160;7.526;2023-04-15T14:50:52;3.53;;;1.88;;
73900;SDS011;62235;52.160;7.526;2023-04-15T14:53:18;5.43;;;2.60;;
73900;SDS011;62235;52.160;7.526;2023-04-15T14:55:43;1.35;;;0.90;;
73900;SDS011;62235;52.160;7.526;2023-04-15T14:58:09;4.70;;;1.67;;